sensor_id;sensor_type;location;lat;lon;timestamp;pressure;altitude;pressure_sealevel;temperature;humidity
61337;BME280;47212;41.326;2.104;2022-12-20T00:02:42;102477.03;;;13.63;85.90
61337;BME280;47212;41.326;2.104;2022-12-20T00:07:52;102466.81;;;13.58;85.84
61337;BME280;47212;41.326;2.104;2022-12-20T00:12:55;102466.22;;;13.56;85.97
61337;BME280;47212;41.326;2.104;2022-12-20T00:18:04;102459.09;;;13.55;86.01
61337;BME280;47212;41.326;2.104;2022-12-20T00:23:08;102458.50;;;13.53;86.13
61337;BME280;47212;41.326;2.104;2022-12-20T00:28:17;102440.66;;;13.51;85.93
61337;BME280;47212;41.326;2.104;2022-12-20T00:33:23;102445.78;;;13.47;85.96
61337;BME280;47212;41.326;2.104;2022-12-20T00:38:29;102449.00;;;13.44;85.92
61337;BME280;47212;41.326;2.104;2022-12-20T00:43:35;102439.63;;;13.40;85.69
61337;BME280;47212;41.326;2.104;2022-12-20T00:48:41;102449.38;;;13.36;86.00
61337;BME280;47212;41.326;2.104;2022-12-20T00:53:48;102441.88;;;13.31;85.66
61337;BME280;47212;41.326;2.104;2022-12-20T00:59:00;102436.31;;;13.26;85.78
61337;BME280;47212;41.326;2.104;2022-12-20T01:04:11;102436.19;;;13.21;85.60
61337;BME280;47212;41.326;2.104;2022-12-20T01:09:19;102429.53;;;13.17;85.47
61337;BME280;47212;41.326;2.104;2022-12-20T01:14:23;102433.78;;;13.13;85.37
61337;BME280;47212;41.326;2.104;2022-12-20T01:19:30;102426.06;;;13.10;85.85
61337;BME280;47212;41.326;2.104;2022-12-20T01:24:37;102420.34;;;13.12;85.73
61337;BME280;47212;41.326;2.104;2022-12-20T01:29:54;102414.06;;;13.11;85.45
61337;BME280;47212;41.326;2.104;2022-12-20T01:34:58;102416.66;;;13.06;85.53
61337;BME280;47212;41.326;2.104;2022-12-20T01:40:07;102424.75;;;13.01;85.50
61337;BME280;47212;41.326;2.104;2022-12-20T01:45:22;102422.69;;;12.96;85.88
61337;BME280;47212;41.326;2.104;2022-12-20T01:50:27;102416.03;;;12.92;85.67
61337;BME280;47212;41.326;2.104;2022-12-20T01:55:33;102412.34;;;12.87;85.07
61337;BME280;47212;41.326;2.104;2022-12-20T02:05:19;102405.81;;;12.76;84.65
61337;BME280;47212;41.326;2.104;2022-12-20T02:10:26;102409.03;;;12.73;84.75
61337;BME280;47212;41.326;2.104;2022-12-20T02:15:53;102411.88;;;12.66;84.69
61337;BME280;47212;41.326;2.104;2022-12-20T02:32:12;102390.47;;;12.52;84.19
61337;BME280;47212;41.326;2.104;2022-12-20T02:37:18;102386.19;;;12.44;84.02
61337;BME280;47212;41.326;2.104;2022-12-20T02:42:24;102380.59;;;12.39;84.02
61337;BME280;47212;41.326;2.104;2022-12-20T02:47:42;102364.91;;;12.34;83.05
61337;BME280;47212;41.326;2.104;2022-12-20T02:52:50;102359.91;;;12.31;82.92
61337;BME280;47212;41.326;2.104;2022-12-20T02:58:03;102354.09;;;12.28;82.67
61337;BME280;47212;41.326;2.104;2022-12-20T03:03:08;102349.94;;;12.25;82.40
61337;BME280;47212;41.326;2.104;2022-12-20T03:08:27;102353.38;;;12.21;82.65
61337;BME280;47212;41.326;2.104;2022-12-20T03:13:32;102341.25;;;12.17;83.07
61337;BME280;47212;41.326;2.104;2022-12-20T03:18:42;102345.50;;;12.12;82.26
61337;BME280;47212;41.326;2.104;2022-12-20T03:23:51;102354.75;;;12.11;82.60
61337;BME280;47212;41.326;2.104;2022-12-20T03:28:56;102349.28;;;12.11;82.21
61337;BME280;47212;41.326;2.104;2022-12-20T03:34:02;102338.75;;;12.15;82.55
61337;BME280;47212;41.326;2.104;2022-12-20T03:39:06;102328.19;;;12.19;82.38
61337;BME280;47212;41.326;2.104;2022-12-20T03:44:15;102331.06;;;12.24;82.83
61337;BME280;47212;41.326;2.104;2022-12-20T03:49:26;102327.03;;;12.26;83.32
61337;BME280;47212;41.326;2.104;2022-12-20T03:54:32;102330.13;;;12.30;82.62
61337;BME280;47212;41.326;2.104;2022-12-20T03:59:43;102333.31;;;12.27;82.22
61337;BME280;47212;41.326;2.104;2022-12-20T04:04:49;102330.09;;;12.18;82.04
61337;BME280;47212;41.326;2.104;2022-12-20T04:09:53;102322.22;;;12.10;81.91
61337;BME280;47212;41.326;2.104;2022-12-20T04:14:59;102323.75;;;12.06;82.16
61337;BME280;47212;41.326;2.104;2022-12-20T04:20:04;102324.44;;;12.01;82.09
61337;BME280;47212;41.326;2.104;2022-12-20T04:25:26;102329.19;;;11.94;81.01
61337;BME280;47212;41.326;2.104;2022-12-20T04:30:32;102332.00;;;11.88;81.28
61337;BME280;47212;41.326;2.104;2022-12-20T04:35:38;102323.69;;;11.83;81.14
61337;BME280;47212;41.326;2.104;2022-12-20T04:40:48;102338.03;;;11.78;81.22
61337;BME280;47212;41.326;2.104;2022-12-20T04:45:55;102329.22;;;11.76;81.35
61337;BME280;47212;41.326;2.104;2022-12-20T04:51:08;102330.50;;;11.73;81.55
61337;BME280;47212;41.326;2.104;2022-12-20T04:56:28;102318.03;;;11.66;80.72
61337;BME280;47212;41.326;2.104;2022-12-20T05:07:51;102306.84;;;11.56;81.64
61337;BME280;47212;41.326;2.104;2022-12-20T05:13:00;102302.44;;;11.55;82.16
61337;BME280;47212;41.326;2.104;2022-12-20T05:18:35;102295.94;;;11.56;82.46
61337;BME280;47212;41.326;2.104;2022-12-20T05:23:49;102287.50;;;11.57;82.52
61337;BME280;47212;41.326;2.104;2022-12-20T05:29:33;102290.25;;;11.57;82.24
61337;BME280;47212;41.326;2.104;2022-12-20T05:34:38;102296.75;;;11.56;82.23
61337;BME280;47212;41.326;2.104;2022-12-20T05:39:46;102289.28;;;11.52;82.40
61337;BME280;47212;41.326;2.104;2022-12-20T05:45:10;102294.34;;;11.48;81.66
61337;BME280;47212;41.326;2.104;2022-12-20T05:50:39;102294.44;;;11.41;81.41
61337;BME280;47212;41.326;2.104;2022-12-20T05:56:12;102287.78;;;11.37;81.65
61337;BME280;47212;41.326;2.104;2022-12-20T06:01:16;102299.97;;;11.35;81.89
61337;BME280;47212;41.326;2.104;2022-12-20T06:06:26;102302.34;;;11.31;82.15
61337;BME280;47212;41.326;2.104;2022-12-20T06:11:42;102298.41;;;11.27;81.91
61337;BME280;47212;41.326;2.104;2022-12-20T06:16:58;102286.25;;;11.23;81.93
61337;BME280;47212;41.326;2.104;2022-12-20T06:22:03;102284.00;;;11.20;81.04
61337;BME280;47212;41.326;2.104;2022-12-20T06:27:17;102283.63;;;11.16;81.82
61337;BME280;47212;41.326;2.104;2022-12-20T06:32:53;102279.22;;;11.15;82.05
61337;BME280;47212;41.326;2.104;2022-12-20T06:37:59;102269.16;;;11.16;81.65
61337;BME280;47212;41.326;2.104;2022-12-20T06:43:07;102287.78;;;11.19;82.15
61337;BME280;47212;41.326;2.104;2022-12-20T06:48:21;102287.56;;;11.21;82.21
61337;BME280;47212;41.326;2.104;2022-12-20T06:53:45;102290.06;;;11.22;82.23
61337;BME280;47212;41.326;2.104;2022-12-20T06:58:50;102298.22;;;11.22;81.83
61337;BME280;47212;41.326;2.104;2022-12-20T07:03:53;102291.09;;;11.21;81.42
61337;BME280;47212;41.326;2.104;2022-12-20T07:08:59;102295.50;;;11.22;81.44
61337;BME280;47212;41.326;2.104;2022-12-20T07:14:12;102292.78;;;11.22;81.57
61337;BME280;47212;41.326;2.104;2022-12-20T07:19:24;102285.66;;;11.21;81.21
61337;BME280;47212;41.326;2.104;2022-12-20T07:24:32;102275.81;;;11.20;81.50
61337;BME280;47212;41.326;2.104;2022-12-20T07:29:50;102287.56;;;11.21;81.73
61337;BME280;47212;41.326;2.104;2022-12-20T07:34:52;102294.66;;;11.22;80.90
61337;BME280;47212;41.326;2.104;2022-12-20T07:39:58;102280.81;;;11.23;81.62
61337;BME280;47212;41.326;2.104;2022-12-20T07:45:07;102289.53;;;11.32;81.54
61337;BME280;47212;41.326;2.104;2022-12-20T07:50:41;102287.78;;;11.37;81.05
61337;BME280;47212;41.326;2.104;2022-12-20T07:56:17;102281.41;;;11.43;81.12
61337;BME280;47212;41.326;2.104;2022-12-20T08:01:24;102289.28;;;11.52;81.29
61337;BME280;47212;41.326;2.104;2022-12-20T08:06:33;102284.81;;;11.69;80.27
61337;BME280;47212;41.326;2.104;2022-12-20T08:11:44;102280.13;;;12.76;77.45
61337;BME280;47212;41.326;2.104;2022-12-20T08:16:51;102270.41;;;15.38;68.42
61337;BME280;47212;41.326;2.104;2022-12-20T08:21:55;102278.34;;;17.62;61.79
61337;BME280;47212;41.326;2.104;2022-12-20T08:27:15;102284.47;;;19.46;56.09
61337;BME280;47212;41.326;2.104;2022-12-20T08:32:30;102289.22;;;21.05;52.47
61337;BME280;47212;41.326;2.104;2022-12-20T08:37:44;102284.63;;;22.32;48.12
61337;BME280;47212;41.326;2.104;2022-12-20T08:42:49;102280.75;;;22.93;46.38
61337;BME280;47212;41.326;2.104;2022-12-20T08:48:11;102272.88;;;23.36;45.79
61337;BME280;47212;41.326;2.104;2022-12-20T08:53:15;102279.69;;;23.30;46.16
61337;BME280;47212;41.326;2.104;2022-12-20T08:58:23;102280.63;;;22.24;48.45
61337;BME280;47212;41.326;2.104;2022-12-20T09:03:39;102287.53;;;22.08;48.81
61337;BME280;47212;41.326;2.104;2022-12-20T09:08:47;102286.94;;;22.11;47.73
61337;BME280;47212;41.326;2.104;2022-12-20T09:13:52;102284.91;;;21.98;49.00
61337;BME280;47212;41.326;2.104;2022-12-20T09:19:03;102290.25;;;21.76;49.67
61337;BME280;47212;41.326;2.104;2022-12-20T09:24:14;102285.94;;;21.27;50.99
61337;BME280;47212;41.326;2.104;2022-12-20T09:29:20;102286.94;;;20.88;51.98
61337;BME280;47212;41.326;2.104;2022-12-20T09:34:35;102278.59;;;20.64;52.63
61337;BME280;47212;41.326;2.104;2022-12-20T09:39:44;102277.09;;;20.48;52.51
61337;BME280;47212;41.326;2.104;2022-12-20T09:44:50;102274.75;;;20.31;53.90
61337;BME280;47212;41.326;2.104;2022-12-20T09:50:01;102274.75;;;20.31;54.70
61337;BME280;47212;41.326;2.104;2022-12-20T09:55:29;102281.63;;;20.05;54.06
61337;BME280;47212;41.326;2.104;2022-12-20T10:00:58;102270.56;;;19.66;55.56
61337;BME280;47212;41.326;2.104;2022-12-20T10:06:45;102269.25;;;19.53;55.27
61337;BME280;47212;41.326;2.104;2022-12-20T10:23:18;102267.47;;;19.72;55.73
61337;BME280;47212;41.326;2.104;2022-12-20T10:28:36;102263.53;;;19.84;57.59
61337;BME280;47212;41.326;2.104;2022-12-20T10:33:42;102259.69;;;19.80;58.00
61337;BME280;47212;41.326;2.104;2022-12-20T10:38:56;102248.25;;;19.91;57.32
61337;BME280;47212;41.326;2.104;2022-12-20T10:44:16;102235.75;;;20.04;56.99
61337;BME280;47212;41.326;2.104;2022-12-20T10:49:37;102236.56;;;20.04;55.53
61337;BME280;47212;41.326;2.104;2022-12-20T10:54:46;102239.00;;;20.11;57.41
61337;BME280;47212;41.326;2.104;2022-12-20T11:00:26;102216.63;;;20.36;55.59
61337;BME280;47212;41.326;2.104;2022-12-20T11:05:34;102216.06;;;20.40;56.89
61337;BME280;47212;41.326;2.104;2022-12-20T11:11:19;102218.72;;;20.21;56.47
61337;BME280;47212;41.326;2.104;2022-12-20T11:16:36;102202.47;;;20.14;58.56
61337;BME280;47212;41.326;2.104;2022-12-20T11:27:45;102185.16;;;20.03;57.72
61337;BME280;47212;41.326;2.104;2022-12-20T11:33:22;102180.75;;;19.68;59.74
61337;BME280;47212;41.326;2.104;2022-12-20T11:39:12;102156.63;;;19.79;59.91
61337;BME280;47212;41.326;2.104;2022-12-20T11:44:52;102155.97;;;19.58;61.37
61337;BME280;47212;41.326;2.104;2022-12-20T11:56:29;102132.16;;;19.28;64.53
61337;BME280;47212;41.326;2.104;2022-12-20T12:01:59;102130.63;;;19.46;64.79
61337;BME280;47212;41.326;2.104;2022-12-20T12:07:20;102119.84;;;19.50;64.40
61337;BME280;47212;41.326;2.104;2022-12-20T12:12:53;102115.97;;;19.51;64.77
61337;BME280;47212;41.326;2.104;2022-12-20T12:18:11;102099.13;;;19.52;64.06
61337;BME280;47212;41.326;2.104;2022-12-20T12:23:26;102089.16;;;19.51;65.15
61337;BME280;47212;41.326;2.104;2022-12-20T12:28:33;102088.97;;;19.42;65.46
61337;BME280;47212;41.326;2.104;2022-12-20T12:33:51;102071.66;;;19.32;65.69
61337;BME280;47212;41.326;2.104;2022-12-20T12:44:45;102062.41;;;19.18;66.30
61337;BME280;47212;41.326;2.104;2022-12-20T12:49:56;102049.22;;;19.04;66.29
61337;BME280;47212;41.326;2.104;2022-12-20T12:55:00;102044.84;;;18.98;66.75
61337;BME280;47212;41.326;2.104;2022-12-20T13:11:41;102017.94;;;18.80;66.50
61337;BME280;47212;41.326;2.104;2022-12-20T13:16:52;102006.41;;;18.73;65.22
61337;BME280;47212;41.326;2.104;2022-12-20T13:22:26;102002.50;;;18.79;65.19
61337;BME280;47212;41.326;2.104;2022-12-20T13:27:40;102002.97;;;18.91;63.73
61337;BME280;47212;41.326;2.104;2022-12-20T13:32:56;101994.91;;;19.00;63.05
61337;BME280;47212;41.326;2.104;2022-12-20T13:43:52;101993.50;;;19.02;62.26
61337;BME280;47212;41.326;2.104;2022-12-20T13:49:20;101988.81;;;19.03;61.88
61337;BME280;47212;41.326;2.104;2022-12-20T13:54:33;101987.78;;;18.94;60.86
61337;BME280;47212;41.326;2.104;2022-12-20T13:59:53;101983.66;;;18.91;59.93
61337;BME280;47212;41.326;2.104;2022-12-20T14:05:30;101974.84;;;18.89;59.61
61337;BME280;47212;41.326;2.104;2022-12-20T14:10:51;101970.63;;;18.58;60.06
61337;BME280;47212;41.326;2.104;2022-12-20T14:15:54;101969.03;;;18.52;62.20
61337;BME280;47212;41.326;2.104;2022-12-20T14:21:03;101970.81;;;18.32;62.33
61337;BME280;47212;41.326;2.104;2022-12-20T14:26:24;101969.22;;;18.16;62.82
61337;BME280;47212;41.326;2.104;2022-12-20T14:31:46;101960.75;;;18.02;63.99
61337;BME280;47212;41.326;2.104;2022-12-20T14:37:36;101950.69;;;17.67;66.17
61337;BME280;47212;41.326;2.104;2022-12-20T14:42:44;101940.81;;;17.51;65.60
61337;BME280;47212;41.326;2.104;2022-12-20T14:48:06;101942.22;;;17.38;66.44
61337;BME280;47212;41.326;2.104;2022-12-20T14:53:23;101947.44;;;17.14;67.92
61337;BME280;47212;41.326;2.104;2022-12-20T14:58:43;101947.19;;;17.01;68.60
61337;BME280;47212;41.326;2.104;2022-12-20T15:03:57;101963.16;;;16.94;69.77
61337;BME280;47212;41.326;2.104;2022-12-20T15:09:05;101965.63;;;16.85;70.37
61337;BME280;47212;41.326;2.104;2022-12-20T15:19:40;101970.56;;;16.78;70.54
61337;BME280;47212;41.326;2.104;2022-12-20T15:24:45;101965.06;;;16.73;70.56
61337;BME280;47212;41.326;2.104;2022-12-20T15:29:52;101963.69;;;16.65;70.40
61337;BME280;47212;41.326;2.104;2022-12-20T15:34:55;101957.34;;;16.60;70.66
61337;BME280;47212;41.326;2.104;2022-12-20T15:40:12;101953.75;;;16.49;71.49
61337;BME280;47212;41.326;2.104;2022-12-20T15:45:20;101951.50;;;16.41;71.74
61337;BME280;47212;41.326;2.104;2022-12-20T15:50:24;101954.50;;;16.34;72.36
61337;BME280;47212;41.326;2.104;2022-12-20T15:55:29;101953.94;;;16.27;72.25
61337;BME280;47212;41.326;2.104;2022-12-20T16:00:50;101949.00;;;16.24;73.05
61337;BME280;47212;41.326;2.104;2022-12-20T16:06:01;101954.75;;;16.17;73.43
61337;BME280;47212;41.326;2.104;2022-12-20T16:11:06;101941.81;;;16.13;73.49
61337;BME280;47212;41.326;2.104;2022-12-20T16:16:33;101938.78;;;16.09;74.94
61337;BME280;47212;41.326;2.104;2022-12-20T16:21:46;101936.28;;;16.03;74.72
61337;BME280;47212;41.326;2.104;2022-12-20T16:26:51;101931.91;;;16.02;74.35
61337;BME280;47212;41.326;2.104;2022-12-20T16:32:00;101929.97;;;15.97;75.00
61337;BME280;47212;41.326;2.104;2022-12-20T16:37:06;101922.00;;;15.96;75.12
61337;BME280;47212;41.326;2.104;2022-12-20T16:42:13;101932.41;;;15.93;75.73
61337;BME280;47212;41.326;2.104;2022-12-20T16:47:17;101926.91;;;15.88;75.90
61337;BME280;47212;41.326;2.104;2022-12-20T16:52:23;101921.97;;;15.85;75.74
61337;BME280;47212;41.326;2.104;2022-12-20T16:57:31;101912.06;;;15.84;75.82
61337;BME280;47212;41.326;2.104;2022-12-20T17:02:41;101910.97;;;15.80;75.83
61337;BME280;47212;41.326;2.104;2022-12-20T17:07:47;101905.47;;;15.80;76.49
61337;BME280;47212;41.326;2.104;2022-12-20T17:12:57;101896.69;;;15.78;76.07
61337;BME280;47212;41.326;2.104;2022-12-20T17:18:04;101886.22;;;15.75;76.25
61337;BME280;47212;41.326;2.104;2022-12-20T17:23:18;101908.72;;;15.72;76.93
61337;BME280;47212;41.326;2.104;2022-12-20T17:28:46;101921.34;;;15.68;76.93
61337;BME280;47212;41.326;2.104;2022-12-20T17:34:27;101917.78;;;15.68;77.58
61337;BME280;47212;41.326;2.104;2022-12-20T17:39:38;101921.63;;;15.67;77.60
61337;BME280;47212;41.326;2.104;2022-12-20T17:44:54;101920.78;;;15.66;77.63
61337;BME280;47212;41.326;2.104;2022-12-20T17:50:02;101906.50;;;15.64;77.58
61337;BME280;47212;41.326;2.104;2022-12-20T17:55:23;101901.00;;;15.64;78.07
61337;BME280;47212;41.326;2.104;2022-12-20T18:00:30;101910.59;;;15.62;78.31
61337;BME280;47212;41.326;2.104;2022-12-20T18:05:40;101919.09;;;15.60;78.31
61337;BME280;47212;41.326;2.104;2022-12-20T18:10:47;101919.34;;;15.58;78.35
61337;BME280;47212;41.326;2.104;2022-12-20T18:15:52;101921.00;;;15.59;78.67
61337;BME280;47212;41.326;2.104;2022-12-20T18:21:18;101921.81;;;15.60;78.64
61337;BME280;47212;41.326;2.104;2022-12-20T18:26:28;101922.69;;;15.60;78.93
61337;BME280;47212;41.326;2.104;2022-12-20T18:31:42;101905.88;;;15.57;78.83
61337;BME280;47212;41.326;2.104;2022-12-20T18:37:21;101913.53;;;15.55;78.59
61337;BME280;47212;41.326;2.104;2022-12-20T18:42:27;101912.97;;;15.53;78.84
61337;BME280;47212;41.326;2.104;2022-12-20T18:47:31;101918.72;;;15.51;79.04
61337;BME280;47212;41.326;2.104;2022-12-20T18:52:43;101920.66;;;15.51;78.84
61337;BME280;47212;41.326;2.104;2022-12-20T18:57:52;101912.41;;;15.51;78.90
61337;BME280;47212;41.326;2.104;2022-12-20T19:02:58;101923.41;;;15.51;78.47
61337;BME280;47212;41.326;2.104;2022-12-20T19:08:10;101936.28;;;15.50;78.39
61337;BME280;47212;41.326;2.104;2022-12-20T19:13:21;101927.22;;;15.50;78.49
61337;BME280;47212;41.326;2.104;2022-12-20T19:18:27;101932.72;;;15.50;78.41
61337;BME280;47212;41.326;2.104;2022-12-20T19:23:38;101918.44;;;15.48;78.04
61337;BME280;47212;41.326;2.104;2022-12-20T19:28:44;101924.47;;;15.45;78.14
61337;BME280;47212;41.326;2.104;2022-12-20T19:33:55;101923.59;;;15.39;78.43
61337;BME280;47212;41.326;2.104;2022-12-20T19:39:16;101907.69;;;15.36;78.87
61337;BME280;47212;41.326;2.104;2022-12-20T19:44:26;101908.75;;;15.30;78.93
61337;BME280;47212;41.326;2.104;2022-12-20T19:49:33;101905.69;;;15.26;78.96
61337;BME280;47212;41.326;2.104;2022-12-20T19:54:40;101896.91;;;15.24;79.27
61337;BME280;47212;41.326;2.104;2022-12-20T19:59:48;101892.78;;;15.22;79.49
61337;BME280;47212;41.326;2.104;2022-12-20T20:04:59;101908.94;;;15.18;80.10
61337;BME280;47212;41.326;2.104;2022-12-20T20:10:17;101914.97;;;15.15;80.19
61337;BME280;47212;41.326;2.104;2022-12-20T20:15:21;101909.47;;;15.15;80.54
61337;BME280;47212;41.326;2.104;2022-12-20T20:20:26;101902.59;;;15.13;80.71
61337;BME280;47212;41.326;2.104;2022-12-20T20:25:47;101898.22;;;15.12;81.27
61337;BME280;47212;41.326;2.104;2022-12-20T20:30:51;101881.75;;;15.12;81.12
61337;BME280;47212;41.326;2.104;2022-12-20T20:35:59;101876.00;;;15.13;81.42
61337;BME280;47212;41.326;2.104;2022-12-20T20:41:02;101882.03;;;15.10;81.20
61337;BME280;47212;41.326;2.104;2022-12-20T20:46:13;101883.13;;;15.09;81.24
61337;BME280;47212;41.326;2.104;2022-12-20T20:51:27;101877.63;;;15.09;81.02
61337;BME280;47212;41.326;2.104;2022-12-20T20:56:36;101902.31;;;15.09;81.07
61337;BME280;47212;41.326;2.104;2022-12-20T21:01:57;101907.22;;;15.07;80.96
61337;BME280;47212;41.326;2.104;2022-12-20T21:07:02;101895.97;;;15.04;80.95
61337;BME280;47212;41.326;2.104;2022-12-20T21:12:07;101889.09;;;15.01;80.96
61337;BME280;47212;41.326;2.104;2022-12-20T21:17:19;101896.50;;;15.01;81.14
61337;BME280;47212;41.326;2.104;2022-12-20T21:22:39;101904.16;;;14.98;80.67
61337;BME280;47212;41.326;2.104;2022-12-20T21:27:41;101899.44;;;14.89;79.96
61337;BME280;47212;41.326;2.104;2022-12-20T21:32:55;101888.38;;;14.79;79.64
61337;BME280;47212;41.326;2.104;2022-12-20T21:38:03;101873.47;;;14.70;79.59
61337;BME280;47212;41.326;2.104;2022-12-20T21:43:08;101877.28;;;14.63;79.29
61337;BME280;47212;41.326;2.104;2022-12-20T21:48:20;101894.19;;;14.55;79.42
61337;BME280;47212;41.326;2.104;2022-12-20T21:53:30;101896.06;;;14.50;79.46
61337;BME280;47212;41.326;2.104;2022-12-20T21:59:00;101883.16;;;14.45;79.47
61337;BME280;47212;41.326;2.104;2022-12-20T22:04:15;101880.94;;;14.42;79.67
61337;BME280;47212;41.326;2.104;2022-12-20T22:09:20;101887.47;;;14.41;79.63
61337;BME280;47212;41.326;2.104;2022-12-20T22:14:28;101891.56;;;14.39;79.74
61337;BME280;47212;41.326;2.104;2022-12-20T22:19:39;101893.97;;;14.35;79.83
61337;BME280;47212;41.326;2.104;2022-12-20T22:24:51;101887.94;;;14.33;80.05
61337;BME280;47212;41.326;2.104;2022-12-20T22:29:58;101886.53;;;14.30;79.83
61337;BME280;47212;41.326;2.104;2022-12-20T22:35:05;101881.91;;;14.31;79.90
61337;BME280;47212;41.326;2.104;2022-12-20T22:40:11;101881.06;;;14.30;79.99
61337;BME280;47212;41.326;2.104;2022-12-20T22:45:18;101889.28;;;14.30;80.00
61337;BME280;47212;41.326;2.104;2022-12-20T22:50:28;101885.16;;;14.28;80.14
61337;BME280;47212;41.326;2.104;2022-12-20T22:55:34;101879.09;;;14.26;80.38
61337;BME280;47212;41.326;2.104;2022-12-20T23:00:43;101894.41;;;14.22;80.57
61337;BME280;47212;41.326;2.104;2022-12-20T23:06:12;101895.75;;;14.19;80.55
61337;BME280;47212;41.326;2.104;2022-12-20T23:11:25;101887.47;;;14.14;80.62
61337;BME280;47212;41.326;2.104;2022-12-20T23:16:50;101881.44;;;14.12;80.58
61337;BME280;47212;41.326;2.104;2022-12-20T23:21:55;101884.69;;;14.09;80.98
61337;BME280;47212;41.326;2.104;2022-12-20T23:27:21;101879.72;;;14.06;81.01
61337;BME280;47212;41.326;2.104;2022-12-20T23:32:25;101875.09;;;14.07;80.99
61337;BME280;47212;41.326;2.104;2022-12-20T23:37:32;101873.69;;;14.04;81.50
61337;BME280;47212;41.326;2.104;2022-12-20T23:42:37;101873.44;;;14.06;81.64
61337;BME280;47212;41.326;2.104;2022-12-20T23:47:45;101859.16;;;14.03;81.45
61337;BME280;47212;41.326;2.104;2022-12-20T23:52:50;101868.47;;;14.02;81.42
61337;BME280;47212;41.326;2.104;2022-12-20T23:57:57;101900.50;;;14.02;81.37
